Time;durP1;ratioP1;P1;durP2;ratioP2;P2;SDS_P1;SDS_P2;PMS_P1;PMS_P2;Temp;Humidity;BMP_temperature;BMP_pressure;BME280_temperature;BME280_humidity;BME280_pressure;Samples;Min_cycle;Max_cycle;Signal;HPM_P1;HPM_P2
2023/03/15 00:02:11;;;;;;;5.25;1.88;;;;;;;-0.07;100.00;95401.50;5008169;28;20046;-75
2023/03/15 00:04:37;;;;;;;4.47;1.55;;;;;;;-0.08;100.00;95400.66;5008837;28;20428;-75
2023/03/15 00:07:05;;;;;;;6.70;1.83;;;;;;;-0.04;100.00;95406.50;5011758;28;20053;-74
2023/03/15 00:09:32;;;;;;;5.25;1.58;;;;;;;0.14;100.00;95413.63;5011779;28;20408;-74
2023/03/15 00:11:58;;;;;;;3.78;1.90;;;;;;;0.29;100.00;95406.44;5009074;28;20057;-74
2023/03/15 00:14:24;;;;;;;8.50;1.90;;;;;;;0.21;100.00;95421.94;5014225;28;20053;-74
2023/03/15 00:16:53;;;;;;;4.13;1.58;;;;;;;0.21;100.00;95427.88;5007169;28;20050;-74
2023/03/15 00:19:20;;;;;;;7.13;1.90;;;;;;;0.30;100.00;95436.97;5011377;28;20053;-74
2023/03/15 00:21:46;;;;;;;10.40;2.20;;;;;;;0.19;100.00;95441.53;5009940;28;20054;-74
2023/03/15 00:24:14;;;;;;;3.33;1.48;;;;;;;0.16;100.00;95444.16;5013154;28;20054;-74
2023/03/15 00:26:40;;;;;;;4.25;1.30;;;;;;;0.29;100.00;95445.47;5010682;28;20053;-74
2023/03/15 00:29:07;;;;;;;9.77;1.70;;;;;;;0.28;100.00;95445.53;5013908;28;20057;-74
2023/03/15 00:31:34;;;;;;;8.60;2.15;;;;;;;0.16;100.00;95457.72;5003824;28;20042;-74
2023/03/15 00:34:01;;;;;;;4.90;1.80;;;;;;;0.22;100.00;95459.25;5013924;28;20057;-74
2023/03/15 00:36:27;;;;;;;3.05;1.67;;;;;;;0.20;100.00;95471.22;5013645;28;20058;-74
2023/03/15 00:38:55;;;;;;;4.82;1.85;;;;;;;0.22;100.00;95469.44;5013706;28;20053;-74
2023/03/15 00:41:24;;;;;;;7.22;2.05;;;;;;;0.02;100.00;95471.69;5013725;28;20056;-74
2023/03/15 00:43:51;;;;;;;5.85;1.48;;;;;;;-0.01;100.00;95475.16;5009460;28;20043;-74
2023/03/15 00:46:19;;;;;;;3.63;1.23;;;;;;;0.01;100.00;95486.16;5012725;28;20061;-74
2023/03/15 00:48:48;;;;;;;10.70;2.15;;;;;;;0.00;100.00;95484.50;5007778;28;20057;-74
2023/03/15 00:51:16;;;;;;;4.38;1.60;;;;;;;0.02;100.00;95481.88;5012767;28;20061;-74
2023/03/15 00:53:45;;;;;;;2.30;1.52;;;;;;;-0.02;100.00;95486.22;5011212;28;20054;-74
2023/03/15 00:56:14;;;;;;;5.65;1.95;;;;;;;-0.03;100.00;95492.19;5002846;28;20053;-74
2023/03/15 00:58:42;;;;;;;7.93;1.80;;;;;;;-0.04;100.00;95493.06;5011978;28;20050;-74
2023/03/15 01:01:10;;;;;;;3.13;1.00;;;;;;;-0.02;100.00;95488.78;5009654;28;20054;-74
2023/03/15 01:03:36;;;;;;;6.55;1.70;;;;;;;0.10;100.00;95493.53;5002552;28;20397;-74
2023/03/15 01:06:07;;;;;;;4.45;1.50;;;;;;;0.09;100.00;95508.88;5013226;28;20045;-74
2023/03/15 01:08:33;;;;;;;9.85;1.98;;;;;;;-0.09;100.00;95507.63;5010032;28;20049;-74
2023/03/15 01:11:03;;;;;;;4.53;1.65;;;;;;;-0.08;100.00;95507.56;5013143;28;20073;-74
2023/03/15 01:13:29;;;;;;;1.98;1.23;;;;;;;0.08;100.00;95509.75;5004932;28;20077;-75
2023/03/15 01:15:57;;;;;;;6.90;1.80;;;;;;;-0.03;100.00;95512.56;5006263;28;20046;-74
2023/03/15 01:18:24;;;;;;;5.15;1.55;;;;;;;0.01;100.00;95506.50;5007387;28;20057;-75
2023/03/15 01:20:50;;;;;;;3.35;1.33;;;;;;;0.11;100.00;95518.13;5012615;28;20531;-75
2023/03/15 01:23:17;;;;;;;3.17;1.45;;;;;;;0.28;100.00;95517.69;5010813;28;20042;-75
2023/03/15 01:25:44;;;;;;;3.83;1.75;;;;;;;0.25;100.00;95515.22;5004523;28;20053;-74
2023/03/15 01:28:10;;;;;;;6.00;1.65;;;;;;;0.29;100.00;95521.06;5012527;28;20057;-74
2023/03/15 01:30:36;;;;;;;3.90;1.67;;;;;;;0.06;100.00;95519.13;5003213;28;20072;-75
2023/03/15 01:33:04;;;;;;;7.72;1.52;;;;;;;-0.02;100.00;95520.16;5011820;28;20061;-74
2023/03/15 01:35:31;;;;;;;3.05;1.30;;;;;;;0.01;100.00;95536.25;5012251;28;20046;-74
2023/03/15 01:37:57;;;;;;;4.65;1.58;;;;;;;0.11;100.00;95537.66;5011912;28;20509;-74
2023/03/15 01:40:24;;;;;;;5.75;1.50;;;;;;;-0.04;100.00;95528.69;5005992;28;20050;-74
2023/03/15 01:42:52;;;;;;;2.10;1.30;;;;;;;-0.07;100.00;95534.72;5012416;28;20056;-74
2023/03/15 01:45:56;;;;;;;6.82;1.48;;;;;;;0.08;100.00;95541.13;5011089;28;20086;-74
2023/03/15 01:48:27;;;;;;;3.53;1.70;;;;;;;0.06;100.00;95547.13;5007034;28;20050;-74
2023/03/15 01:50:55;;;;;;;3.90;1.48;;;;;;;0.22;100.00;95546.72;5008420;28;20050;-74
2023/03/15 01:53:23;;;;;;;5.13;1.77;;;;;;;0.20;100.00;95552.72;5005756;28;20463;-75
2023/03/15 01:55:51;;;;;;;9.45;1.70;;;;;;;0.24;100.00;95544.94;5003547;28;20042;-75
2023/03/15 01:58:20;;;;;;;3.60;1.30;;;;;;;0.40;100.00;95544.53;5010584;28;20046;-75
2023/03/15 02:00:46;;;;;;;4.78;1.67;;;;;;;0.34;100.00;95549.81;5010980;28;20133;-75
2023/03/15 02:03:18;;;;;;;4.07;1.38;;;;;;;0.14;100.00;95558.78;5003187;28;20057;-75
2023/03/15 02:05:53;;;;;;;4.53;1.63;;;;;;;0.10;100.00;95556.34;4999921;28;20497;-75
2023/03/15 02:08:24;;;;;;;8.52;1.73;;;;;;;0.01;100.00;95562.53;5009831;28;20057;-75
2023/03/15 02:10:53;;;;;;;9.88;1.70;;;;;;;-0.07;100.00;95565.25;5009155;28;20050;-75
2023/03/15 02:13:22;;;;;;;3.97;1.65;;;;;;;0.02;100.00;95573.53;5007316;28;20038;-74
2023/03/15 02:15:49;;;;;;;11.95;1.52;;;;;;;0.04;100.00;95566.69;5004991;28;20084;-75
2023/03/15 02:18:16;;;;;;;4.30;1.50;;;;;;;0.07;100.00;95570.00;5009277;28;20057;-74
2023/03/15 02:20:51;;;;;;;6.82;1.77;;;;;;;0.16;100.00;95567.22;5011797;28;20062;-74
2023/03/15 02:23:19;;;;;;;5.03;1.55;;;;;;;0.27;100.00;95574.59;4996490;28;20051;-74
2023/03/15 02:25:55;;;;;;;10.68;1.48;;;;;;;0.31;100.00;95576.19;5006116;28;20436;-74
2023/03/15 02:28:23;;;;;;;2.55;1.40;;;;;;;0.38;100.00;95580.25;5009603;28;20049;-74
2023/03/15 02:30:50;;;;;;;4.97;1.95;;;;;;;0.43;100.00;95578.41;5006336;28;20053;-74
2023/03/15 02:33:22;;;;;;;3.72;1.33;;;;;;;0.29;100.00;95579.66;5011714;28;20072;-74
2023/03/15 02:35:48;;;;;;;3.63;1.98;;;;;;;0.36;100.00;95578.59;5009518;28;20046;-74
2023/03/15 02:38:15;;;;;;;2.58;1.35;;;;;;;0.33;100.00;95583.78;5011032;28;20046;-74
2023/03/15 02:40:41;;;;;;;2.88;1.33;;;;;;;0.30;100.00;95594.91;5010730;28;20050;-74
2023/03/15 02:43:13;;;;;;;5.90;1.50;;;;;;;0.23;100.00;95590.84;5011172;28;20057;-75
2023/03/15 02:45:42;;;;;;;3.15;1.70;;;;;;;0.26;100.00;95593.31;5009806;28;20046;-74
2023/03/15 02:48:10;;;;;;;6.53;1.85;;;;;;;0.11;100.00;95599.63;5005455;28;20046;-74
2023/03/15 02:50:37;;;;;;;2.53;1.20;;;;;;;0.03;100.00;95610.84;5002921;28;20050;-74
2023/03/15 02:53:04;;;;;;;2.90;1.42;;;;;;;-0.17;100.00;95611.34;5010471;28;20046;-75
2023/03/15 02:55:31;;;;;;;9.05;1.48;;;;;;;-0.17;100.00;95630.00;5004836;28;20054;-74
2023/03/15 02:57:58;;;;;;;5.53;1.48;;;;;;;-0.16;100.00;95626.56;5011213;28;20131;-74
2023/03/15 03:00:25;;;;;;;6.13;1.65;;;;;;;-0.11;100.00;95626.44;5010303;28;20489;-74
2023/03/15 03:02:53;;;;;;;3.33;1.27;;;;;;;-0.07;100.00;95635.72;5005008;28;20066;-75
2023/03/15 03:05:19;;;;;;;5.90;1.60;;;;;;;0.02;100.00;95639.75;5009190;28;20046;-74
2023/03/15 03:07:46;;;;;;;5.45;1.63;;;;;;;0.02;100.00;95640.56;5004727;28;20057;-75
2023/03/15 03:10:14;;;;;;;3.70;1.42;;;;;;;-0.08;100.00;95646.75;5007370;28;20133;-74
2023/03/15 03:12:41;;;;;;;2.90;1.23;;;;;;;-0.07;100.00;95644.19;5005476;28;20448;-74
2023/03/15 03:15:09;;;;;;;3.92;2.10;;;;;;;0.02;100.00;95650.75;5010013;28;20053;-75
2023/03/15 03:17:36;;;;;;;4.55;1.83;;;;;;;-0.10;100.00;95656.97;5011360;28;20444;-75
2023/03/15 03:20:06;;;;;;;2.80;1.42;;;;;;;-0.17;100.00;95654.59;5004731;28;20053;-75
2023/03/15 03:22:33;;;;;;;3.35;1.73;;;;;;;-0.15;100.00;95658.81;5014779;28;20492;-75
2023/03/15 03:25:00;;;;;;;4.15;1.45;;;;;;;-0.18;100.00;95668.22;5015087;28;20054;-74
2023/03/15 03:27:27;;;;;;;4.97;2.15;;;;;;;-0.13;100.00;95672.31;5014672;28;20566;-75
2023/03/15 03:29:53;;;;;;;5.30;1.58;;;;;;;-0.08;100.00;95673.03;5004603;28;20054;-74
2023/03/15 03:32:20;;;;;;;9.48;2.55;;;;;;;-0.21;100.00;95681.84;5010903;28;20057;-74
2023/03/15 03:34:47;;;;;;;8.07;2.40;;;;;;;-0.12;100.00;95681.63;5013788;28;20049;-75
2023/03/15 03:37:16;;;;;;;7.47;2.67;;;;;;;-0.15;100.00;95683.41;5010503;28;20155;-74
2023/03/15 03:39:43;;;;;;;6.18;2.65;;;;;;;-0.09;100.00;95684.09;5006088;28;20535;-75
2023/03/15 03:42:09;;;;;;;4.50;2.40;;;;;;;-0.09;100.00;95693.44;5012443;28;20524;-74
2023/03/15 03:44:36;;;;;;;8.15;2.67;;;;;;;0.04;100.00;95699.09;5004691;28;20133;-74
2023/03/15 03:47:03;;;;;;;6.25;2.65;;;;;;;0.03;100.00;95705.06;5003309;28;20050;-75
2023/03/15 03:49:29;;;;;;;4.38;2.28;;;;;;;0.12;100.00;95704.88;5003813;28;20523;-75
2023/03/15 03:51:56;;;;;;;5.95;2.28;;;;;;;0.13;100.00;95702.28;5009088;28;20529;-74
2023/03/15 03:54:24;;;;;;;6.43;2.70;;;;;;;0.07;100.00;95716.84;5008578;28;20053;-74
2023/03/15 03:56:50;;;;;;;7.28;2.45;;;;;;;0.12;100.00;95708.25;5012984;28;20085;-74
2023/03/15 03:59:17;;;;;;;7.60;2.40;;;;;;;0.17;100.00;95713.22;5013742;28;20065;-74
2023/03/15 04:01:43;;;;;;;3.63;1.95;;;;;;;0.19;100.00;95719.97;5014543;28;20104;-74
2023/03/15 04:04:12;;;;;;;3.20;1.75;;;;;;;0.21;100.00;95723.31;5010842;28;20054;-74
2023/03/15 04:06:44;;;;;;;2.47;1.10;;;;;;;0.24;100.00;95719.84;5008708;28;20045;-74
2023/03/15 04:09:11;;;;;;;5.57;1.80;;;;;;;0.07;100.00;95727.88;5011745;28;20045;-74
2023/03/15 04:11:41;;;;;;;2.75;1.70;;;;;;;-0.21;100.00;95725.09;5013855;28;20531;-74
2023/03/15 04:14:08;;;;;;;5.57;2.33;;;;;;;-0.32;100.00;95725.34;5011990;28;20058;-74
2023/03/15 04:16:34;;;;;;;8.68;2.30;;;;;;;-0.40;100.00;95739.94;5011492;28;20045;-74
2023/03/15 04:19:01;;;;;;;4.68;2.55;;;;;;;-0.50;100.00;95738.44;5013764;28;20053;-75
2023/03/15 04:21:30;;;;;;;5.13;2.45;;;;;;;-0.35;100.00;95745.75;5013112;28;20464;-75
2023/03/15 04:23:57;;;;;;;5.28;2.28;;;;;;;-0.36;100.00;95746.63;5010148;28;20088;-75
2023/03/15 04:26:25;;;;;;;10.90;2.25;;;;;;;-0.29;100.00;95752.44;5010749;28;20509;-75
2023/03/15 04:28:53;;;;;;;4.30;2.22;;;;;;;-0.24;100.00;95755.72;5013388;28;20115;-75
2023/03/15 04:31:19;;;;;;;5.78;1.73;;;;;;;-0.22;100.00;95753.13;5012950;28;20497;-74
2023/03/15 04:33:46;;;;;;;2.92;2.08;;;;;;;-0.11;100.00;95749.50;5010700;28;20052;-74
2023/03/15 04:36:17;;;;;;;4.00;1.95;;;;;;;-0.19;100.00;95751.34;5012756;28;20057;-74
2023/03/15 04:38:45;;;;;;;7.57;2.67;;;;;;;-0.23;100.00;95756.53;5009118;28;20074;-74
2023/03/15 04:41:12;;;;;;;4.10;1.95;;;;;;;-0.33;100.00;95756.75;5013231;28;20050;-74
2023/03/15 04:43:38;;;;;;;10.05;1.73;;;;;;;-0.30;100.00;95761.78;5007140;28;20049;-74
2023/03/15 04:46:07;;;;;;;7.60;2.40;;;;;;;-0.38;100.00;95758.53;5012749;28;20060;-75
2023/03/15 04:48:34;;;;;;;4.28;1.83;;;;;;;-0.26;100.00;95757.44;5013191;28;20085;-75
2023/03/15 04:51:00;;;;;;;9.57;2.15;;;;;;;-0.30;100.00;95745.66;5010590;28;20720;-75
2023/03/15 04:53:27;;;;;;;4.63;2.10;;;;;;;-0.30;100.00;95753.28;5004765;28;20069;-75
2023/03/15 04:55:53;;;;;;;6.35;2.63;;;;;;;-0.46;100.00;95755.31;5008276;28;20037;-74
2023/03/15 04:58:20;;;;;;;3.08;1.58;;;;;;;-0.69;100.00;95760.00;5012692;28;20048;-75
2023/03/15 05:00:47;;;;;;;4.53;1.92;;;;;;;-0.70;100.00;95759.19;5005365;28;20050;-73
2023/03/15 05:03:14;;;;;;;8.13;2.28;;;;;;;-0.75;100.00;95758.41;5009083;28;20054;-75
2023/03/15 05:05:41;;;;;;;4.50;1.83;;;;;;;-0.81;100.00;95758.53;5001433;28;20047;-75
2023/03/15 05:08:07;;;;;;;4.95;2.00;;;;;;;-0.89;100.00;95752.75;5008494;28;20049;-75
2023/03/15 05:10:34;;;;;;;5.65;2.08;;;;;;;-1.12;100.00;95737.91;5011034;28;20053;-75
2023/03/15 05:13:00;;;;;;;7.47;2.53;;;;;;;-1.10;100.00;95736.19;5012064;28;20046;-74
2023/03/15 05:15:27;;;;;;;9.90;2.85;;;;;;;-1.14;100.00;95750.66;5009078;28;20866;-75
2023/03/15 05:17:54;;;;;;;8.98;2.63;;;;;;;-1.06;100.00;95745.44;5007512;28;20045;-74
2023/03/15 05:20:24;;;;;;;7.38;2.92;;;;;;;-1.06;100.00;95745.44;5012000;28;20053;-75
2023/03/15 05:22:51;;;;;;;5.95;2.05;;;;;;;-1.13;100.00;95752.31;5007847;28;20133;-75
2023/03/15 05:25:18;;;;;;;6.53;2.17;;;;;;;-1.08;100.00;95754.78;5010418;28;20063;-74
2023/03/15 05:27:46;;;;;;;4.50;1.80;;;;;;;-1.20;100.00;95749.91;5005059;28;20050;-73
2023/03/15 05:30:14;;;;;;;7.40;2.35;;;;;;;-1.27;100.00;95755.09;4999897;28;20089;-74
2023/03/15 05:32:43;;;;;;;6.55;2.22;;;;;;;-1.18;100.00;95750.75;5012799;28;20050;-73
2023/03/15 05:35:11;;;;;;;6.35;2.30;;;;;;;-1.24;100.00;95757.59;5010345;28;20057;-73
2023/03/15 05:37:39;;;;;;;5.18;2.47;;;;;;;-1.37;100.00;95758.69;5009136;28;20056;-72
2023/03/15 05:40:08;;;;;;;6.47;2.70;;;;;;;-1.35;100.00;95764.56;5003411;28;20050;-74
2023/03/15 05:42:35;;;;;;;8.77;2.63;;;;;;;-1.35;100.00;95764.56;5005530;28;20132;-74
2023/03/15 05:45:01;;;;;;;9.30;3.22;;;;;;;-1.31;100.00;95761.09;5000605;28;20053;-74
2023/03/15 05:47:28;;;;;;;18.08;3.63;;;;;;;-1.34;100.00;95763.69;5010005;28;20038;-74
2023/03/15 05:49:54;;;;;;;12.48;3.42;;;;;;;-1.33;100.00;95767.09;5001604;28;20394;-74
2023/03/15 05:52:21;;;;;;;6.72;3.40;;;;;;;-1.30;100.00;95767.00;5009347;28;20385;-74
2023/03/15 05:54:49;;;;;;;8.07;3.50;;;;;;;-1.32;100.00;95768.75;5010855;28;20057;-74
2023/03/15 05:57:16;;;;;;;10.95;3.88;;;;;;;-1.41;100.00;95769.72;5003877;28;20125;-74
2023/03/15 05:59:42;;;;;;;6.07;3.20;;;;;;;-1.39;100.00;95773.09;5009537;28;20053;-73
2023/03/15 06:02:09;;;;;;;9.23;3.67;;;;;;;-1.36;100.00;95773.03;5006448;28;20057;-73
2023/03/15 06:04:36;;;;;;;10.90;3.53;;;;;;;-1.35;100.00;95787.41;5002185;28;20046;-73
2023/03/15 06:07:03;;;;;;;9.52;2.67;;;;;;;-1.31;100.00;95786.50;5011482;28;20161;-74
2023/03/15 06:09:29;;;;;;;5.30;2.40;;;;;;;-1.28;100.00;95793.25;5009123;28;20049;-74
2023/03/15 06:11:58;;;;;;;6.90;1.83;;;;;;;-1.23;100.00;95796.53;5006187;28;20477;-74
2023/03/15 06:14:24;;;;;;;4.95;2.45;;;;;;;-1.13;100.00;95792.16;5009255;28;20464;-74
2023/03/15 06:16:51;;;;;;;6.97;2.70;;;;;;;-0.98;100.00;95782.56;5011619;28;20068;-73
2023/03/15 06:19:17;;;;;;;4.90;2.47;;;;;;;-0.96;100.00;95785.09;5010108;28;20058;-74
2023/03/15 06:21:44;;;;;;;10.75;4.18;;;;;;;-1.08;100.00;95793.75;5003051;28;20057;-74
2023/03/15 06:24:11;;;;;;;11.05;2.33;;;;;;;-0.97;100.00;95791.84;5009081;28;20058;-74
2023/03/15 06:26:37;;;;;;;8.68;3.00;;;;;;;-0.86;100.00;95788.28;5007787;28;20058;-74
2023/03/15 06:29:06;;;;;;;7.82;2.90;;;;;;;-0.76;100.00;95789.81;5007079;28;20054;-76
2023/03/15 06:31:32;;;;;;;5.70;2.53;;;;;;;-0.64;100.00;95788.72;4998077;28;20046;-74
2023/03/15 06:33:58;;;;;;;6.88;2.80;;;;;;;-0.63;100.00;95791.25;5010302;28;20052;-73
2023/03/15 06:36:25;;;;;;;7.47;2.60;;;;;;;-0.57;100.00;95792.84;5006046;28;20053;-73
2023/03/15 06:38:53;;;;;;;11.10;2.67;;;;;;;-0.44;100.00;95804.47;5009250;28;20411;-73
2023/03/15 06:41:20;;;;;;;9.40;3.03;;;;;;;-0.28;100.00;95808.38;5007876;28;20104;-74
2023/03/15 06:43:46;;;;;;;11.57;2.42;;;;;;;-0.19;100.00;95801.41;5009325;28;20050;-73
2023/03/15 06:46:14;;;;;;;4.65;2.55;;;;;;;-0.22;100.00;95807.44;5007908;28;20049;-74
2023/03/15 06:48:41;;;;;;;8.23;2.55;;;;;;;-0.18;100.00;95809.03;5004287;28;20046;-73
2023/03/15 06:51:08;;;;;;;7.03;3.45;;;;;;;-0.13;100.00;95816.59;5011185;28;20053;-73
2023/03/15 06:53:34;;;;;;;7.05;3.10;;;;;;;-0.13;100.00;95811.50;5010615;28;20180;-75
2023/03/15 06:56:01;;;;;;;8.32;3.10;;;;;;;-0.05;100.00;95818.09;5008839;28;20049;-73
2023/03/15 06:58:27;;;;;;;9.07;2.75;;;;;;;-0.02;100.00;95823.13;5008998;28;20060;-73
2023/03/15 07:00:54;;;;;;;5.22;2.20;;;;;;;0.06;100.00;95824.69;5010290;28;20440;-74
2023/03/15 07:03:22;;;;;;;14.90;2.90;;;;;;;0.10;100.00;95832.22;5008538;28;20054;-74
2023/03/15 07:05:51;;;;;;;8.15;2.63;;;;;;;0.22;100.00;95824.34;5003249;28;20059;-75
2023/03/15 07:08:18;;;;;;;8.52;2.90;;;;;;;0.22;100.00;95820.91;5011395;28;20526;-72
2023/03/15 07:10:45;;;;;;;8.27;2.92;;;;;;;0.36;100.00;95825.72;5008358;28;20125;-73
2023/03/15 07:13:12;;;;;;;4.53;2.08;;;;;;;0.27;100.00;95826.78;5011294;28;20053;-73
2023/03/15 07:15:39;;;;;;;7.68;2.20;;;;;;;0.48;100.00;95831.41;5009264;28;20467;-73
2023/03/15 07:18:05;;;;;;;5.45;2.00;;;;;;;0.57;100.00;95832.06;5004422;28;20417;-72
2023/03/15 07:20:33;;;;;;;8.77;2.45;;;;;;;0.83;100.00;95839.09;5008282;28;20054;-72
2023/03/15 07:23:00;;;;;;;5.22;2.15;;;;;;;0.80;100.00;95841.72;5005073;28;20424;-72
2023/03/15 07:25:26;;;;;;;8.25;3.17;;;;;;;0.75;100.00;95846.09;5004616;28;20069;-71
2023/03/15 07:27:53;;;;;;;4.15;2.10;;;;;;;0.85;100.00;95843.28;4999731;28;20050;-74
2023/03/15 07:30:21;;;;;;;5.07;2.15;;;;;;;0.93;100.00;95855.88;5007054;28;20417;-73
2023/03/15 07:32:47;;;;;;;6.20;2.22;;;;;;;0.94;100.00;95855.00;5010762;28;20065;-73
2023/03/15 07:35:14;;;;;;;7.32;2.38;;;;;;;1.25;100.00;95862.72;5010205;28;20057;-75
2023/03/15 07:37:41;;;;;;;6.10;2.33;;;;;;;1.03;100.00;95852.19;5004863;28;20412;-73
2023/03/15 07:40:10;;;;;;;13.93;3.20;;;;;;;1.28;100.00;95854.16;5010723;28;20497;-73
2023/03/15 07:42:36;;;;;;;7.88;2.67;;;;;;;1.18;100.00;95853.53;5005116;28;20042;-74
2023/03/15 07:45:03;;;;;;;5.97;2.03;;;;;;;1.14;100.00;95855.31;5007228;28;20061;-71
2023/03/15 07:47:30;;;;;;;5.63;2.08;;;;;;;1.34;100.00;95856.56;5009620;28;20045;-71
2023/03/15 07:49:57;;;;;;;10.38;2.67;;;;;;;1.26;100.00;95855.91;5009055;28;20117;-71
2023/03/15 07:52:23;;;;;;;8.55;1.98;;;;;;;1.35;100.00;95859.06;5002902;28;20469;-71
2023/03/15 07:54:51;;;;;;;4.22;1.83;;;;;;;1.39;100.00;95850.47;5000487;28;20042;-71
2023/03/15 07:57:18;;;;;;;7.35;2.22;;;;;;;1.43;100.00;95848.66;5007387;28;20463;-71
2023/03/15 07:59:45;;;;;;;5.90;2.38;;;;;;;1.98;100.00;95848.91;5005344;28;20053;-71
2023/03/15 08:02:13;;;;;;;5.30;2.40;;;;;;;1.96;100.00;95855.75;5002796;28;20058;-72
2023/03/15 08:04:39;;;;;;;17.35;3.40;;;;;;;1.93;100.00;95852.44;5008983;28;20065;-72
2023/03/15 08:07:06;;;;;;;7.75;2.00;;;;;;;1.76;100.00;95851.22;5005823;28;20050;-72
2023/03/15 08:09:33;;;;;;;4.13;1.73;;;;;;;2.30;100.00;95847.97;5007754;28;20057;-72
2023/03/15 08:12:02;;;;;;;6.93;2.55;;;;;;;2.32;100.00;95846.22;5013674;28;20056;-73
2023/03/15 08:14:30;;;;;;;10.80;1.95;;;;;;;2.03;100.00;95847.06;5006632;28;20038;-72
2023/03/15 08:16:56;;;;;;;4.00;1.88;;;;;;;2.10;100.00;95858.78;5010763;28;20050;-73
2023/03/15 08:19:23;;;;;;;5.43;2.13;;;;;;;2.49;100.00;95856.81;5013368;28;20053;-73
2023/03/15 08:21:52;;;;;;;6.15;2.60;;;;;;;2.15;100.00;95855.22;5010970;28;20061;-74
2023/03/15 08:24:19;;;;;;;6.30;2.55;;;;;;;2.39;100.00;95855.38;5015927;28;20056;-78
2023/03/15 08:26:45;;;;;;;8.27;2.22;;;;;;;2.25;100.00;95858.34;5007703;28;20425;-77
2023/03/15 08:29:13;;;;;;;4.53;2.25;;;;;;;2.77;100.00;95861.91;5017113;28;20768;-77
2023/03/15 08:31:40;;;;;;;9.45;1.95;;;;;;;2.98;100.00;95860.41;5010795;28;20069;-77
2023/03/15 08:34:06;;;;;;;;;;;;;;;3.33;100.00;95856.69;5011029;28;20054;-78
2023/03/15 08:36:33;;;;;;;;;;;;;;;3.31;100.00;95870.44;5012678;28;19932;-77
2023/03/15 08:38:59;;;;;;;;;;;;;;;3.33;100.00;95866.09;5009065;28;19922;-77
2023/03/15 08:41:25;;;;;;;4.13;1.30;;;;;;;2.74;100.00;95861.97;5012106;28;19929;-75
2023/03/15 08:43:52;;;;;;;3.53;1.70;;;;;;;3.04;100.00;95872.16;5010552;28;20060;-73
2023/03/15 08:46:20;;;;;;;5.72;2.00;;;;;;;3.13;100.00;95871.88;5012884;28;20042;-73
2023/03/15 08:48:47;;;;;;;5.95;1.98;;;;;;;3.23;100.00;95872.44;5006665;28;20069;-72
2023/03/15 08:51:13;;;;;;;7.43;2.05;;;;;;;3.27;100.00;95872.28;5001103;28;20050;-72
2023/03/15 08:53:40;;;;;;;7.10;3.20;;;;;;;3.31;100.00;95871.28;5002122;28;25007;-73
2023/03/15 08:56:07;;;;;;;5.07;2.20;;;;;;;3.57;100.00;95874.72;5004143;28;24432;-74
2023/03/15 08:58:34;;;;;;;8.93;3.17;;;;;;;3.27;100.00;95869.72;5003067;28;24451;-74
2023/03/15 09:01:01;;;;;;;7.47;2.60;;;;;;;3.09;100.00;95872.88;5001804;28;24788;-74
2023/03/15 09:03:31;;;;;;;4.60;1.80;;;;;;;2.73;100.00;95875.66;5008989;28;24440;-74
2023/03/15 09:05:58;;;;;;;5.43;1.63;;;;;;;2.90;100.00;95881.13;5014220;28;25010;-73
2023/03/15 09:08:25;;;;;;;4.35;1.88;;;;;;;2.83;100.00;95884.75;5012078;28;24498;-75
2023/03/15 09:10:54;;;;;;;5.10;1.80;;;;;;;2.65;100.00;95888.69;5010512;28;24444;-73
2023/03/15 09:13:21;;;;;;;3.95;1.70;;;;;;;2.68;100.00;95887.78;5004925;28;24437;-75
2023/03/15 09:15:50;;;;;;;5.28;1.70;;;;;;;2.86;100.00;95888.94;5008095;28;24436;-74
2023/03/15 09:18:16;;;;;;;3.85;1.33;;;;;;;3.44;100.00;95887.06;5003680;28;24448;-74
2023/03/15 09:20:45;;;;;;;4.63;1.67;;;;;;;4.02;100.00;95894.50;5008183;28;24472;-75
2023/03/15 09:23:12;;;;;;;6.07;1.98;;;;;;;4.29;100.00;95888.38;5007140;28;25139;-75
2023/03/15 09:25:39;;;;;;;4.60;1.38;;;;;;;4.83;100.00;95892.38;5001051;28;24436;-74
2023/03/15 09:28:07;;;;;;;4.35;1.27;;;;;;;4.73;100.00;95890.22;5008839;28;24432;-72
2023/03/15 09:30:34;;;;;;;8.68;1.70;;;;;;;5.20;97.12;95896.06;5011111;28;24443;-73
2023/03/15 09:33:01;;;;;;;5.47;1.98;;;;;;;4.64;97.38;95898.25;5009855;28;24436;-71
2023/03/15 09:35:27;;;;;;;3.58;1.30;;;;;;;4.88;97.02;95896.50;5010914;28;24449;-71
2023/03/15 09:37:55;;;;;;;7.75;3.05;;;;;;;5.21;96.89;95896.91;5010613;28;24459;-71
2023/03/15 09:40:24;;;;;;;3.90;1.42;;;;;;;5.66;93.25;95899.34;5007682;28;24451;-71
2023/03/15 09:43:01;;;;;;;5.93;1.48;;;;;;;5.31;96.03;95891.34;5005402;28;24444;-72
2023/03/15 09:45:40;;;;;;;8.63;2.60;;;;;;;5.74;99.52;95888.75;4999851;28;24448;-72
2023/03/15 09:48:11;;;;;;;3.97;1.98;;;;;;;5.83;92.45;95889.19;5005553;28;24467;-74
2023/03/15 09:50:44;;;;;;;10.98;3.63;;;;;;;5.99;90.82;95897.13;5005128;28;25010;-72
2023/03/15 09:53:16;;;;;;;3.70;0.85;;;;;;;6.42;88.70;95897.00;5000647;28;24441;-76
2023/03/15 09:55:45;;;;;;;3.03;1.20;;;;;;;6.61;87.14;95897.03;5009659;28;24457;-75
2023/03/15 09:58:16;;;;;;;3.75;1.15;;;;;;;7.10;83.14;95898.16;5010008;28;24819;-72
2023/03/15 10:00:47;;;;;;;3.05;1.38;;;;;;;6.34;80.60;95901.63;4999069;28;24448;-73
2023/03/15 10:03:20;;;;;;;8.43;1.30;;;;;;;6.91;80.41;95899.94;5007171;28;24439;-72
2023/03/15 10:05:49;;;;;;;8.13;1.15;;;;;;;6.93;79.17;95898.09;5009946;28;24440;-73
2023/03/15 10:08:19;;;;;;;3.37;0.80;;;;;;;6.49;78.88;95900.97;5006153;28;24498;-72
2023/03/15 10:10:51;;;;;;;4.57;1.20;;;;;;;5.55;76.53;95906.66;5004991;28;24436;-73
2023/03/15 10:13:30;;;;;;;10.10;1.42;;;;;;;5.37;69.69;95894.56;5005638;28;24448;-75
2023/03/15 10:16:08;;;;;;;7.57;1.27;;;;;;;5.76;71.83;95902.38;5005592;28;20807;-74
2023/03/15 10:18:47;;;;;;;3.15;1.20;;;;;;;5.57;70.66;95890.28;5009211;28;24810;-74
2023/03/15 10:21:21;;;;;;;4.55;1.20;;;;;;;5.05;72.56;95896.69;5005131;28;24454;-75
2023/03/15 10:23:53;;;;;;;4.20;1.63;;;;;;;4.98;73.45;95890.13;5007432;28;24443;-74
2023/03/15 10:26:25;;;;;;;4.45;1.35;;;;;;;4.92;71.38;95898.88;5005792;28;24514;-74
2023/03/15 10:28:53;;;;;;;3.80;1.48;;;;;;;4.68;72.70;95898.09;4999259;28;24429;-74
2023/03/15 10:31:25;;;;;;;3.70;1.38;;;;;;;4.99;71.38;95900.31;5005494;28;24478;-72
2023/03/15 10:33:51;;;;;;;3.88;1.17;;;;;;;5.06;71.94;95898.34;5000153;28;24807;-73
2023/03/15 10:36:23;;;;;;;4.97;1.42;;;;;;;5.41;68.53;95894.38;5003577;28;24447;-73
2023/03/15 10:38:51;;;;;;;6.85;1.30;;;;;;;5.86;67.70;95895.97;5001766;28;24455;-72
2023/03/15 10:41:29;;;;;;;7.68;3.30;;;;;;;6.14;65.85;95897.38;5009378;28;24439;-72
2023/03/15 10:43:59;;;;;;;3.03;1.00;;;;;;;5.94;66.10;95893.94;5007699;28;24802;-73
2023/03/15 10:46:26;;;;;;;2.33;0.90;;;;;;;6.26;68.39;95896.81;5009346;28;24436;-72
2023/03/15 10:48:57;;;;;;;3.13;1.15;;;;;;;6.33;66.79;95897.41;5006506;28;24655;-73
2023/03/15 10:51:26;;;;;;;1.90;0.60;;;;;;;5.25;63.77;95888.19;5004042;28;24464;-73
2023/03/15 10:53:57;;;;;;;3.13;0.82;;;;;;;5.26;66.74;95908.66;5009991;28;24487;-72
2023/03/15 10:56:25;;;;;;;2.42;1.00;;;;;;;4.95;69.09;95909.03;5007392;28;24476;-72
2023/03/15 10:58:53;;;;;;;4.50;1.02;;;;;;;4.91;70.00;95910.03;5003806;28;24483;-72
2023/03/15 11:01:25;;;;;;;2.77;0.70;;;;;;;4.64;67.49;95905.97;5008977;28;24443;-73
2023/03/15 11:04:12;;;;;;;6.68;1.17;;;;;;;4.61;70.03;95906.91;5003636;28;24546;-72
2023/03/15 11:06:42;;;;;;;2.22;0.70;;;;;;;4.63;69.45;95906.84;5004151;28;24439;-73
2023/03/15 11:09:13;;;;;;;2.90;1.10;;;;;;;4.41;67.99;95910.19;5007774;28;24982;-73
2023/03/15 11:11:58;;;;;;;3.30;0.70;;;;;;;4.40;69.50;95911.06;5007513;28;24448;-74
2023/03/15 11:14:26;;;;;;;2.70;0.85;;;;;;;4.29;69.76;95906.34;5005513;28;24482;-76
2023/03/15 11:16:58;;;;;;;3.92;1.00;;;;;;;4.36;70.31;95912.91;5003263;28;24499;-76
2023/03/15 11:19:27;;;;;;;2.80;0.80;;;;;;;4.15;69.54;95900.84;5009704;28;24807;-77
2023/03/15 11:21:55;;;;;;;3.53;0.98;;;;;;;4.29;73.09;95913.19;4996992;28;24807;-74
2023/03/15 11:24:27;;;;;;;3.10;1.00;;;;;;;4.40;70.08;95912.81;5008618;28;24440;-75
2023/03/15 11:27:00;;;;;;;1.35;0.75;;;;;;;4.28;68.81;95914.94;5002192;28;24443;-74
2023/03/15 11:29:29;;;;;;;3.50;0.93;;;;;;;4.08;70.71;95913.06;5002377;28;25044;-75
2023/03/15 11:31:56;;;;;;;4.88;0.90;;;;;;;4.23;69.16;95914.28;5007826;28;25087;-76
2023/03/15 11:34:30;;;;;;;1.67;0.70;;;;;;;4.40;69.51;95913.66;5009399;28;24448;-76
2023/03/15 11:37:03;;;;;;;3.42;1.08;;;;;;;4.48;70.84;95915.94;5002105;28;24440;-74